sensor_id;sensor_type;location;lat;lon;timestamp;temperature;humidity
9723;DHT22;4900;49.306;8.500;2023-07-24T00:00:59;22.50;53.23
9723;DHT22;4900;49.306;8.500;2023-07-24T00:03:24;22.50;53.19
9723;DHT22;4900;49.306;8.500;2023-07-24T00:05:50;22.50;53.18
9723;DHT22;4900;49.306;8.500;2023-07-24T00:08:15;22.51;53.14
9723;DHT22;4900;49.306;8.500;2023-07-24T00:10:41;22.48;53.26
9723;DHT22;4900;49.306;8.500;2023-07-24T00:13:06;22.47;53.30
9723;DHT22;4900;49.306;8.500;2023-07-24T00:15:32;22.43;53.35
9723;DHT22;4900;49.306;8.500;2023-07-24T00:17:58;22.41;53.40
9723;DHT22;4900;49.306;8.500;2023-07-24T00:20:23;22.40;53.51
9723;DHT22;4900;49.306;8.500;2023-07-24T00:22:50;22.37;53.82
9723;DHT22;4900;49.306;8.500;2023-07-24T00:25:16;22.34;54.14
9723;DHT22;4900;49.306;8.500;2023-07-24T00:27:41;22.30;54.47
9723;DHT22;4900;49.306;8.500;2023-07-24T00:30:07;22.21;54.56
9723;DHT22;4900;49.306;8.500;2023-07-24T00:32:32;22.14;55.12
9723;DHT22;4900;49.306;8.500;2023-07-24T00:34:58;22.13;55.09
9723;DHT22;4900;49.306;8.500;2023-07-24T00:37:24;22.10;55.25
9723;DHT22;4900;49.306;8.500;2023-07-24T00:39:49;22.09;55.24
9723;DHT22;4900;49.306;8.500;2023-07-24T00:42:15;22.12;55.34
9723;DHT22;4900;49.306;8.500;2023-07-24T00:44:40;22.08;55.34
9723;DHT22;4900;49.306;8.500;2023-07-24T00:47:06;22.06;55.50
9723;DHT22;4900;49.306;8.500;2023-07-24T00:49:31;22.08;55.39
9723;DHT22;4900;49.306;8.500;2023-07-24T00:51:57;22.05;55.40
9723;DHT22;4900;49.306;8.500;2023-07-24T00:54:23;22.05;55.70
9723;DHT22;4900;49.306;8.500;2023-07-24T00:56:49;22.03;55.73
9723;DHT22;4900;49.306;8.500;2023-07-24T00:59:15;22.03;55.66
9723;DHT22;4900;49.306;8.500;2023-07-24T01:01:41;21.98;55.80
9723;DHT22;4900;49.306;8.500;2023-07-24T01:04:08;21.98;55.93
9723;DHT22;4900;49.306;8.500;2023-07-24T01:06:33;21.88;55.96
9723;DHT22;4900;49.306;8.500;2023-07-24T01:08:59;21.83;56.03
9723;DHT22;4900;49.306;8.500;2023-07-24T01:11:28;21.82;56.26
9723;DHT22;4900;49.306;8.500;2023-07-24T01:14:02;21.81;56.32
9723;DHT22;4900;49.306;8.500;2023-07-24T01:16:48;21.78;56.43
9723;DHT22;4900;49.306;8.500;2023-07-24T01:25:02;21.78;56.72
9723;DHT22;4900;49.306;8.500;2023-07-24T01:27:29;21.79;56.78
9723;DHT22;4900;49.306;8.500;2023-07-24T01:29:54;21.82;56.73
9723;DHT22;4900;49.306;8.500;2023-07-24T01:32:20;21.86;56.81
9723;DHT22;4900;49.306;8.500;2023-07-24T01:34:46;21.89;56.66
9723;DHT22;4900;49.306;8.500;2023-07-24T01:37:12;21.93;56.71
9723;DHT22;4900;49.306;8.500;2023-07-24T01:39:40;21.98;56.63
9723;DHT22;4900;49.306;8.500;2023-07-24T01:42:06;22.05;56.73
9723;DHT22;4900;49.306;8.500;2023-07-24T01:44:31;22.09;56.61
9723;DHT22;4900;49.306;8.500;2023-07-24T01:46:57;22.10;56.61
9723;DHT22;4900;49.306;8.500;2023-07-24T01:49:22;22.16;56.71
9723;DHT22;4900;49.306;8.500;2023-07-24T01:51:48;22.23;56.86
9723;DHT22;4900;49.306;8.500;2023-07-24T01:54:13;22.23;56.91
9723;DHT22;4900;49.306;8.500;2023-07-24T01:56:39;22.28;56.75
9723;DHT22;4900;49.306;8.500;2023-07-24T01:59:05;22.31;56.92
9723;DHT22;4900;49.306;8.500;2023-07-24T02:01:31;22.28;57.00
9723;DHT22;4900;49.306;8.500;2023-07-24T02:03:56;22.30;57.14
9723;DHT22;4900;49.306;8.500;2023-07-24T02:06:22;22.34;57.39
9723;DHT22;4900;49.306;8.500;2023-07-24T02:08:47;22.36;57.52
9723;DHT22;4900;49.306;8.500;2023-07-24T02:11:17;22.36;57.67
9723;DHT22;4900;49.306;8.500;2023-07-24T02:13:46;22.38;57.73
9723;DHT22;4900;49.306;8.500;2023-07-24T02:16:12;22.40;57.85
9723;DHT22;4900;49.306;8.500;2023-07-24T02:18:40;22.38;57.94
9723;DHT22;4900;49.306;8.500;2023-07-24T02:21:05;22.41;58.13
9723;DHT22;4900;49.306;8.500;2023-07-24T02:23:31;22.37;57.97
9723;DHT22;4900;49.306;8.500;2023-07-24T02:25:56;22.41;57.86
9723;DHT22;4900;49.306;8.500;2023-07-24T02:28:21;22.37;57.93
9723;DHT22;4900;49.306;8.500;2023-07-24T02:30:47;22.38;57.98
9723;DHT22;4900;49.306;8.500;2023-07-24T02:33:13;22.41;58.11
9723;DHT22;4900;49.306;8.500;2023-07-24T02:35:41;22.41;58.00
9723;DHT22;4900;49.306;8.500;2023-07-24T02:38:07;22.43;57.92
9723;DHT22;4900;49.306;8.500;2023-07-24T02:40:33;22.41;58.01
9723;DHT22;4900;49.306;8.500;2023-07-24T02:42:59;22.44;58.11
9723;DHT22;4900;49.306;8.500;2023-07-24T02:45:24;22.44;58.10
9723;DHT22;4900;49.306;8.500;2023-07-24T02:47:50;22.43;58.17
9723;DHT22;4900;49.306;8.500;2023-07-24T02:50:15;22.40;58.06
9723;DHT22;4900;49.306;8.500;2023-07-24T02:52:40;22.38;58.11
9723;DHT22;4900;49.306;8.500;2023-07-24T02:55:06;22.36;58.23
9723;DHT22;4900;49.306;8.500;2023-07-24T02:57:32;22.31;58.45
9723;DHT22;4900;49.306;8.500;2023-07-24T02:59:57;22.26;58.59
9723;DHT22;4900;49.306;8.500;2023-07-24T03:02:22;22.26;58.69
9723;DHT22;4900;49.306;8.500;2023-07-24T03:04:48;22.24;58.60
9723;DHT22;4900;49.306;8.500;2023-07-24T03:07:13;22.27;58.70
9723;DHT22;4900;49.306;8.500;2023-07-24T03:09:39;22.24;58.68
9723;DHT22;4900;49.306;8.500;2023-07-24T03:12:04;22.24;58.61
9723;DHT22;4900;49.306;8.500;2023-07-24T03:14:29;22.24;58.72
9723;DHT22;4900;49.306;8.500;2023-07-24T03:16:55;22.21;58.70
9723;DHT22;4900;49.306;8.500;2023-07-24T03:19:20;22.21;58.64
9723;DHT22;4900;49.306;8.500;2023-07-24T03:21:46;22.23;58.64
9723;DHT22;4900;49.306;8.500;2023-07-24T03:24:11;22.20;58.67
9723;DHT22;4900;49.306;8.500;2023-07-24T03:26:37;22.19;58.68
9723;DHT22;4900;49.306;8.500;2023-07-24T03:29:04;22.17;58.60
9723;DHT22;4900;49.306;8.500;2023-07-24T03:31:30;22.16;58.59
9723;DHT22;4900;49.306;8.500;2023-07-24T03:33:55;22.14;58.64
9723;DHT22;4900;49.306;8.500;2023-07-24T03:36:20;22.14;58.72
9723;DHT22;4900;49.306;8.500;2023-07-24T03:38:46;22.14;58.79
9723;DHT22;4900;49.306;8.500;2023-07-24T03:41:11;22.13;58.72
9723;DHT22;4900;49.306;8.500;2023-07-24T03:43:37;22.12;58.66
9723;DHT22;4900;49.306;8.500;2023-07-24T03:46:03;22.09;58.77
9723;DHT22;4900;49.306;8.500;2023-07-24T03:48:28;22.03;58.86
9723;DHT22;4900;49.306;8.500;2023-07-24T03:51:00;22.00;58.99
9723;DHT22;4900;49.306;8.500;2023-07-24T03:53:26;21.99;59.06
9723;DHT22;4900;49.306;8.500;2023-07-24T03:55:52;21.96;59.30
9723;DHT22;4900;49.306;8.500;2023-07-24T03:58:17;21.91;59.39
9723;DHT22;4900;49.306;8.500;2023-07-24T04:00:43;21.93;59.45
9723;DHT22;4900;49.306;8.500;2023-07-24T04:03:08;21.91;59.54
9723;DHT22;4900;49.306;8.500;2023-07-24T04:05:34;21.95;59.37
9723;DHT22;4900;49.306;8.500;2023-07-24T04:08:00;21.98;59.32
9723;DHT22;4900;49.306;8.500;2023-07-24T04:10:25;22.00;59.19
9723;DHT22;4900;49.306;8.500;2023-07-24T04:12:51;22.05;59.10
9723;DHT22;4900;49.306;8.500;2023-07-24T04:15:17;22.09;58.96
9723;DHT22;4900;49.306;8.500;2023-07-24T04:17:43;22.14;58.93
9723;DHT22;4900;49.306;8.500;2023-07-24T04:20:08;22.14;58.83
9723;DHT22;4900;49.306;8.500;2023-07-24T04:22:34;22.21;58.85
9723;DHT22;4900;49.306;8.500;2023-07-24T04:24:59;22.21;58.68
9723;DHT22;4900;49.306;8.500;2023-07-24T04:27:25;22.27;58.77
9723;DHT22;4900;49.306;8.500;2023-07-24T04:29:50;22.33;58.75
9723;DHT22;4900;49.306;8.500;2023-07-24T04:32:16;22.37;58.64
9723;DHT22;4900;49.306;8.500;2023-07-24T04:34:41;22.37;58.66
9723;DHT22;4900;49.306;8.500;2023-07-24T04:37:06;22.40;58.61
9723;DHT22;4900;49.306;8.500;2023-07-24T04:39:32;22.40;58.55
9723;DHT22;4900;49.306;8.500;2023-07-24T04:41:58;22.45;58.48
9723;DHT22;4900;49.306;8.500;2023-07-24T04:44:24;22.50;58.39
9723;DHT22;4900;49.306;8.500;2023-07-24T04:46:49;22.50;58.32
9723;DHT22;4900;49.306;8.500;2023-07-24T04:49:15;22.51;58.18
9723;DHT22;4900;49.306;8.500;2023-07-24T04:51:41;22.51;58.16
9723;DHT22;4900;49.306;8.500;2023-07-24T04:54:06;22.58;58.07
9723;DHT22;4900;49.306;8.500;2023-07-24T04:56:32;22.67;57.90
9723;DHT22;4900;49.306;8.500;2023-07-24T04:58:57;22.69;57.74
9723;DHT22;4900;49.306;8.500;2023-07-24T05:01:23;22.75;57.66
9723;DHT22;4900;49.306;8.500;2023-07-24T05:03:48;22.82;57.43
9723;DHT22;4900;49.306;8.500;2023-07-24T05:06:14;22.88;57.30
9723;DHT22;4900;49.306;8.500;2023-07-24T05:08:39;22.89;57.13
9723;DHT22;4900;49.306;8.500;2023-07-24T05:11:05;22.96;56.94
9723;DHT22;4900;49.306;8.500;2023-07-24T05:13:30;23.02;56.87
9723;DHT22;4900;49.306;8.500;2023-07-24T05:15:55;23.06;56.69
9723;DHT22;4900;49.306;8.500;2023-07-24T05:18:21;23.10;56.67
9723;DHT22;4900;49.306;8.500;2023-07-24T05:20:47;23.15;56.58
9723;DHT22;4900;49.306;8.500;2023-07-24T05:23:14;23.17;56.55
9723;DHT22;4900;49.306;8.500;2023-07-24T05:25:40;23.20;56.45
9723;DHT22;4900;49.306;8.500;2023-07-24T05:28:05;23.24;56.37
9723;DHT22;4900;49.306;8.500;2023-07-24T05:30:31;23.28;56.32
9723;DHT22;4900;49.306;8.500;2023-07-24T05:32:57;23.33;56.33
9723;DHT22;4900;49.306;8.500;2023-07-24T05:35:22;23.37;56.19
9723;DHT22;4900;49.306;8.500;2023-07-24T05:37:48;23.41;56.24
9723;DHT22;4900;49.306;8.500;2023-07-24T05:40:13;23.45;56.20
9723;DHT22;4900;49.306;8.500;2023-07-24T05:42:39;23.50;56.23
9723;DHT22;4900;49.306;8.500;2023-07-24T05:45:07;23.51;56.17
9723;DHT22;4900;49.306;8.500;2023-07-24T05:47:33;23.54;56.26
9723;DHT22;4900;49.306;8.500;2023-07-24T05:49:59;23.59;56.21
9723;DHT22;4900;49.306;8.500;2023-07-24T05:52:24;23.59;56.23
9723;DHT22;4900;49.306;8.500;2023-07-24T05:54:49;23.61;56.16
9723;DHT22;4900;49.306;8.500;2023-07-24T05:57:15;23.61;56.58
9723;DHT22;4900;49.306;8.500;2023-07-24T05:59:40;23.55;56.73
9723;DHT22;4900;49.306;8.500;2023-07-24T06:02:06;23.62;56.82
9723;DHT22;4900;49.306;8.500;2023-07-24T06:04:32;23.68;56.76
9723;DHT22;4900;49.306;8.500;2023-07-24T06:06:58;23.66;57.09
9723;DHT22;4900;49.306;8.500;2023-07-24T06:09:23;23.71;57.00
9723;DHT22;4900;49.306;8.500;2023-07-24T06:11:49;23.79;57.05
9723;DHT22;4900;49.306;8.500;2023-07-24T06:14:14;23.89;56.81
9723;DHT22;4900;49.306;8.500;2023-07-24T06:16:39;23.99;56.76
9723;DHT22;4900;49.306;8.500;2023-07-24T06:19:05;24.09;56.50
9723;DHT22;4900;49.306;8.500;2023-07-24T06:21:31;24.23;56.50
9723;DHT22;4900;49.306;8.500;2023-07-24T06:23:56;24.36;56.23
9723;DHT22;4900;49.306;8.500;2023-07-24T06:26:22;24.47;56.03
9723;DHT22;4900;49.306;8.500;2023-07-24T06:28:47;24.54;55.92
9723;DHT22;4900;49.306;8.500;2023-07-24T06:31:13;24.57;56.04
9723;DHT22;4900;49.306;8.500;2023-07-24T06:33:38;24.58;56.00
9723;DHT22;4900;49.306;8.500;2023-07-24T06:36:04;24.67;56.17
9723;DHT22;4900;49.306;8.500;2023-07-24T06:38:33;24.71;56.05
9723;DHT22;4900;49.306;8.500;2023-07-24T06:40:59;24.75;56.22
9723;DHT22;4900;49.306;8.500;2023-07-24T06:43:24;24.80;56.17
9723;DHT22;4900;49.306;8.500;2023-07-24T06:45:49;24.82;56.32
9723;DHT22;4900;49.306;8.500;2023-07-24T06:48:15;24.89;56.45
9723;DHT22;4900;49.306;8.500;2023-07-24T06:50:40;24.94;56.38
9723;DHT22;4900;49.306;8.500;2023-07-24T06:53:06;25.00;56.42
9723;DHT22;4900;49.306;8.500;2023-07-24T06:55:31;25.10;56.36
9723;DHT22;4900;49.306;8.500;2023-07-24T06:57:57;25.22;56.04
9723;DHT22;4900;49.306;8.500;2023-07-24T07:00:22;25.37;55.77
9723;DHT22;4900;49.306;8.500;2023-07-24T07:02:48;25.51;55.61
9723;DHT22;4900;49.306;8.500;2023-07-24T07:05:13;25.64;55.52
9723;DHT22;4900;49.306;8.500;2023-07-24T07:07:39;25.75;55.37
9723;DHT22;4900;49.306;8.500;2023-07-24T07:10:05;25.74;55.38
9723;DHT22;4900;49.306;8.500;2023-07-24T07:12:30;25.75;55.48
9723;DHT22;4900;49.306;8.500;2023-07-24T07:14:56;25.90;55.33
9723;DHT22;4900;49.306;8.500;2023-07-24T07:17:21;25.96;55.22
9723;DHT22;4900;49.306;8.500;2023-07-24T07:19:47;26.13;54.97
9723;DHT22;4900;49.306;8.500;2023-07-24T07:22:12;26.09;54.86
9723;DHT22;4900;49.306;8.500;2023-07-24T07:24:38;26.41;54.12
9723;DHT22;4900;49.306;8.500;2023-07-24T07:27:03;26.51;53.72
9723;DHT22;4900;49.306;8.500;2023-07-24T07:29:29;26.79;53.07
9723;DHT22;4900;49.306;8.500;2023-07-24T07:31:56;26.89;52.81
9723;DHT22;4900;49.306;8.500;2023-07-24T07:34:22;27.10;52.33
9723;DHT22;4900;49.306;8.500;2023-07-24T07:36:47;27.09;52.28
9723;DHT22;4900;49.306;8.500;2023-07-24T07:39:13;27.14;52.14
9723;DHT22;4900;49.306;8.500;2023-07-24T07:41:38;27.30;51.80
9723;DHT22;4900;49.306;8.500;2023-07-24T07:44:04;27.24;51.83
9723;DHT22;4900;49.306;8.500;2023-07-24T07:46:29;27.27;51.73
9723;DHT22;4900;49.306;8.500;2023-07-24T07:48:55;27.23;51.91
9723;DHT22;4900;49.306;8.500;2023-07-24T07:51:20;27.26;51.79
9723;DHT22;4900;49.306;8.500;2023-07-24T07:53:45;27.37;51.57
9723;DHT22;4900;49.306;8.500;2023-07-24T07:56:11;27.44;51.43
9723;DHT22;4900;49.306;8.500;2023-07-24T07:58:36;27.34;51.64
9723;DHT22;4900;49.306;8.500;2023-07-24T08:01:06;27.34;51.58
9723;DHT22;4900;49.306;8.500;2023-07-24T08:03:31;27.33;51.59
9723;DHT22;4900;49.306;8.500;2023-07-24T08:05:58;27.51;51.24
9723;DHT22;4900;49.306;8.500;2023-07-24T08:08:23;27.64;50.99
9723;DHT22;4900;49.306;8.500;2023-07-24T08:10:49;27.61;51.13
9723;DHT22;4900;49.306;8.500;2023-07-24T08:13:14;27.37;51.60
9723;DHT22;4900;49.306;8.500;2023-07-24T08:15:40;27.34;51.68
9723;DHT22;4900;49.306;8.500;2023-07-24T08:18:05;26.96;52.39
9723;DHT22;4900;49.306;8.500;2023-07-24T08:20:34;27.21;51.86
9723;DHT22;4900;49.306;8.500;2023-07-24T08:23:00;27.20;51.87
9723;DHT22;4900;49.306;8.500;2023-07-24T08:25:25;27.31;51.54
9723;DHT22;4900;49.306;8.500;2023-07-24T08:27:50;27.31;51.64
9723;DHT22;4900;49.306;8.500;2023-07-24T08:30:17;27.48;51.31
9723;DHT22;4900;49.306;8.500;2023-07-24T08:32:43;27.68;51.06
9723;DHT22;4900;49.306;8.500;2023-07-24T08:35:08;27.81;50.92
9723;DHT22;4900;49.306;8.500;2023-07-24T08:37:34;27.69;51.02
9723;DHT22;4900;49.306;8.500;2023-07-24T08:40:00;27.76;51.21
9723;DHT22;4900;49.306;8.500;2023-07-24T08:42:26;27.78;50.85
9723;DHT22;4900;49.306;8.500;2023-07-24T08:44:54;28.02;50.50
9723;DHT22;4900;49.306;8.500;2023-07-24T08:47:19;28.33;49.90
9723;DHT22;4900;49.306;8.500;2023-07-24T08:49:46;28.75;49.25
9723;DHT22;4900;49.306;8.500;2023-07-24T08:52:12;29.20;48.23
9723;DHT22;4900;49.306;8.500;2023-07-24T08:54:39;29.41;47.81
9723;DHT22;4900;49.306;8.500;2023-07-24T08:57:06;29.33;47.78
9723;DHT22;4900;49.306;8.500;2023-07-24T08:59:32;29.33;47.73
9723;DHT22;4900;49.306;8.500;2023-07-24T09:01:58;29.34;47.79
9723;DHT22;4900;49.306;8.500;2023-07-24T09:04:24;29.16;48.08
9723;DHT22;4900;49.306;8.500;2023-07-24T09:06:50;29.11;48.28
9723;DHT22;4900;49.306;8.500;2023-07-24T09:09:16;29.03;48.43
9723;DHT22;4900;49.306;8.500;2023-07-24T09:11:52;28.88;48.61
9723;DHT22;4900;49.306;8.500;2023-07-24T09:14:25;28.75;48.87
9723;DHT22;4900;49.306;8.500;2023-07-24T09:19:29;28.68;49.54
9723;DHT22;4900;49.306;8.500;2023-07-24T09:21:54;29.09;48.95
9723;DHT22;4900;49.306;8.500;2023-07-24T09:24:20;29.26;48.60
9723;DHT22;4900;49.306;8.500;2023-07-24T09:26:53;29.29;48.50
9723;DHT22;4900;49.306;8.500;2023-07-24T09:29:19;29.36;48.32
9723;DHT22;4900;49.306;8.500;2023-07-24T09:31:45;29.53;48.04
9723;DHT22;4900;49.306;8.500;2023-07-24T09:34:15;29.57;48.02
9723;DHT22;4900;49.306;8.500;2023-07-24T09:36:40;29.65;47.86
9723;DHT22;4900;49.306;8.500;2023-07-24T09:39:06;29.75;47.81
9723;DHT22;4900;49.306;8.500;2023-07-24T09:41:35;29.98;47.39
9723;DHT22;4900;49.306;8.500;2023-07-24T09:44:01;30.09;47.23
9723;DHT22;4900;49.306;8.500;2023-07-24T09:46:26;29.78;47.98
9723;DHT22;4900;49.306;8.500;2023-07-24T09:48:53;30.03;47.47
9723;DHT22;4900;49.306;8.500;2023-07-24T09:51:20;30.14;47.12
9723;DHT22;4900;49.306;8.500;2023-07-24T09:56:17;29.76;47.86
9723;DHT22;4900;49.306;8.500;2023-07-24T09:58:44;29.95;47.54
9723;DHT22;4900;49.306;8.500;2023-07-24T10:01:10;29.88;47.68
9723;DHT22;4900;49.306;8.500;2023-07-24T10:03:39;29.79;47.91
9723;DHT22;4900;49.306;8.500;2023-07-24T10:06:05;29.29;49.17
9723;DHT22;4900;49.306;8.500;2023-07-24T10:08:30;29.38;48.91
9723;DHT22;4900;49.306;8.500;2023-07-24T10:10:58;29.23;49.08
9723;DHT22;4900;49.306;8.500;2023-07-24T10:13:26;29.30;48.84
9723;DHT22;4900;49.306;8.500;2023-07-24T10:15:51;28.92;49.77
9723;DHT22;4900;49.306;8.500;2023-07-24T10:18:17;28.96;49.90
9723;DHT22;4900;49.306;8.500;2023-07-24T10:21:08;28.78;50.19
9723;DHT22;4900;49.306;8.500;2023-07-24T10:23:36;28.58;50.85
9723;DHT22;4900;49.306;8.500;2023-07-24T10:26:05;28.36;51.51
9723;DHT22;4900;49.306;8.500;2023-07-24T10:28:35;28.33;51.71
9723;DHT22;4900;49.306;8.500;2023-07-24T10:31:05;28.27;52.00
9723;DHT22;4900;49.306;8.500;2023-07-24T10:33:35;28.08;52.63
9723;DHT22;4900;49.306;8.500;2023-07-24T10:36:08;28.01;52.92
9723;DHT22;4900;49.306;8.500;2023-07-24T10:38:41;27.90;53.30
9723;DHT22;4900;49.306;8.500;2023-07-24T10:41:08;27.82;53.51
9723;DHT22;4900;49.306;8.500;2023-07-24T10:43:50;27.76;53.85
9723;DHT22;4900;49.306;8.500;2023-07-24T10:46:20;27.69;54.09
9723;DHT22;4900;49.306;8.500;2023-07-24T10:48:50;27.66;54.47
9723;DHT22;4900;49.306;8.500;2023-07-24T10:51:16;27.88;54.09
9723;DHT22;4900;49.306;8.500;2023-07-24T10:53:47;27.92;54.00
9723;DHT22;4900;49.306;8.500;2023-07-24T10:56:13;27.68;54.94
9723;DHT22;4900;49.306;8.500;2023-07-24T10:58:38;28.01;54.44
9723;DHT22;4900;49.306;8.500;2023-07-24T11:01:05;28.19;54.16
9723;DHT22;4900;49.306;8.500;2023-07-24T11:03:31;28.13;54.22
9723;DHT22;4900;49.306;8.500;2023-07-24T11:05:57;28.16;54.06
9723;DHT22;4900;49.306;8.500;2023-07-24T11:08:23;28.31;53.67
9723;DHT22;4900;49.306;8.500;2023-07-24T11:10:53;28.72;52.87
9723;DHT22;4900;49.306;8.500;2023-07-24T11:13:20;29.16;51.95
9723;DHT22;4900;49.306;8.500;2023-07-24T11:15:48;29.23;51.70
9723;DHT22;4900;49.306;8.500;2023-07-24T11:18:14;29.47;51.18
9723;DHT22;4900;49.306;8.500;2023-07-24T11:20:48;29.29;50.84
9723;DHT22;4900;49.306;8.500;2023-07-24T11:23:15;29.51;50.16
9723;DHT22;4900;49.306;8.500;2023-07-24T11:25:41;29.71;49.56
9723;DHT22;4900;49.306;8.500;2023-07-24T11:28:07;29.88;49.12
9723;DHT22;4900;49.306;8.500;2023-07-24T11:30:34;29.75;49.37
9723;DHT22;4900;49.306;8.500;2023-07-24T11:33:02;29.88;49.00
9723;DHT22;4900;49.306;8.500;2023-07-24T11:35:28;29.98;48.93
9723;DHT22;4900;49.306;8.500;2023-07-24T11:37:54;30.34;48.13
9723;DHT22;4900;49.306;8.500;2023-07-24T11:40:19;30.58;47.66
9723;DHT22;4900;49.306;8.500;2023-07-24T11:42:47;30.65;47.52
9723;DHT22;4900;49.306;8.500;2023-07-24T11:45:14;30.93;47.04
9723;DHT22;4900;49.306;8.500;2023-07-24T11:50:08;31.27;46.46
9723;DHT22;4900;49.306;8.500;2023-07-24T11:52:50;30.85;47.08
9723;DHT22;4900;49.306;8.500;2023-07-24T11:55:22;30.98;46.82
9723;DHT22;4900;49.306;8.500;2023-07-24T11:57:58;30.95;46.90
9723;DHT22;4900;49.306;8.500;2023-07-24T12:00:25;31.00;46.84
9723;DHT22;4900;49.306;8.500;2023-07-24T12:02:51;30.83;47.02
9723;DHT22;4900;49.306;8.500;2023-07-24T12:05:17;31.07;46.65
9723;DHT22;4900;49.306;8.500;2023-07-24T12:07:44;31.41;46.03
9723;DHT22;4900;49.306;8.500;2023-07-24T12:10:12;31.31;46.10
9723;DHT22;4900;49.306;8.500;2023-07-24T12:12:47;31.00;46.27
9723;DHT22;4900;49.306;8.500;2023-07-24T12:15:13;30.90;46.48
9723;DHT22;4900;49.306;8.500;2023-07-24T12:17:40;31.03;46.09
9723;DHT22;4900;49.306;8.500;2023-07-24T12:20:07;30.79;46.49
9723;DHT22;4900;49.306;8.500;2023-07-24T12:22:37;30.75;46.61
9723;DHT22;4900;49.306;8.500;2023-07-24T12:25:03;30.34;47.42
9723;DHT22;4900;49.306;8.500;2023-07-24T12:27:29;30.06;48.06
9723;DHT22;4900;49.306;8.500;2023-07-24T12:29:55;30.10;48.11
9723;DHT22;4900;49.306;8.500;2023-07-24T12:32:21;30.17;48.61
9723;DHT22;4900;49.306;8.500;2023-07-24T12:34:49;30.38;48.74
9723;DHT22;4900;49.306;8.500;2023-07-24T12:37:15;30.48;48.93
9723;DHT22;4900;49.306;8.500;2023-07-24T12:39:40;30.61;48.55
9723;DHT22;4900;49.306;8.500;2023-07-24T12:42:06;30.34;48.43
9723;DHT22;4900;49.306;8.500;2023-07-24T12:44:32;30.30;48.09
9723;DHT22;4900;49.306;8.500;2023-07-24T12:46:57;30.86;46.67
9723;DHT22;4900;49.306;8.500;2023-07-24T12:49:23;31.45;45.39
9723;DHT22;4900;49.306;8.500;2023-07-24T12:51:48;31.74;44.79
9723;DHT22;4900;49.306;8.500;2023-07-24T12:54:14;32.34;43.78
9723;DHT22;4900;49.306;8.500;2023-07-24T12:56:40;32.64;43.06
9723;DHT22;4900;49.306;8.500;2023-07-24T12:59:06;32.40;43.14
9723;DHT22;4900;49.306;8.500;2023-07-24T13:01:31;32.89;42.58
9723;DHT22;4900;49.306;8.500;2023-07-24T13:03:57;33.56;41.38
9723;DHT22;4900;49.306;8.500;2023-07-24T13:06:23;33.81;40.87
9723;DHT22;4900;49.306;8.500;2023-07-24T13:08:49;33.92;40.38
9723;DHT22;4900;49.306;8.500;2023-07-24T13:11:15;34.18;39.80
9723;DHT22;4900;49.306;8.500;2023-07-24T13:13:40;34.36;39.32
9723;DHT22;4900;49.306;8.500;2023-07-24T13:16:06;34.54;38.84
9723;DHT22;4900;49.306;8.500;2023-07-24T13:18:31;34.83;38.50
9723;DHT22;4900;49.306;8.500;2023-07-24T13:20:56;35.32;37.64
9723;DHT22;4900;49.306;8.500;2023-07-24T13:23:22;35.59;37.10
9723;DHT22;4900;49.306;8.500;2023-07-24T13:25:52;36.00;36.50
9723;DHT22;4900;49.306;8.500;2023-07-24T13:28:18;36.11;35.98
9723;DHT22;4900;49.306;8.500;2023-07-24T13:30:44;36.88;34.93
9723;DHT22;4900;49.306;8.500;2023-07-24T13:33:10;37.32;34.20
9723;DHT22;4900;49.306;8.500;2023-07-24T13:35:36;37.80;33.48
9723;DHT22;4900;49.306;8.500;2023-07-24T13:38:02;38.29;32.78
9723;DHT22;4900;49.306;8.500;2023-07-24T13:40:27;38.31;32.48
9723;DHT22;4900;49.306;8.500;2023-07-24T13:42:55;38.36;32.31
9723;DHT22;4900;49.306;8.500;2023-07-24T13:45:24;38.42;32.34
9723;DHT22;4900;49.306;8.500;2023-07-24T13:47:49;37.94;32.46
9723;DHT22;4900;49.306;8.500;2023-07-24T13:50:15;38.01;32.29
9723;DHT22;4900;49.306;8.500;2023-07-24T13:52:40;38.61;31.50
9723;DHT22;4900;49.306;8.500;2023-07-24T13:55:06;38.18;31.93
9723;DHT22;4900;49.306;8.500;2023-07-24T13:57:32;37.84;32.09
9723;DHT22;4900;49.306;8.500;2023-07-24T13:59:57;38.11;31.69
9723;DHT22;4900;49.306;8.500;2023-07-24T14:02:23;38.92;30.96
9723;DHT22;4900;49.306;8.500;2023-07-24T14:04:48;38.89;30.94
9723;DHT22;4900;49.306;8.500;2023-07-24T14:07:14;38.44;31.13
9723;DHT22;4900;49.306;8.500;2023-07-24T14:09:39;38.62;31.07
9723;DHT22;4900;49.306;8.500;2023-07-24T14:12:05;38.11;31.55
9723;DHT22;4900;49.306;8.500;2023-07-24T14:14:31;37.61;32.05
9723;DHT22;4900;49.306;8.500;2023-07-24T14:16:56;36.14;33.77
9723;DHT22;4900;49.306;8.500;2023-07-24T14:19:25;36.11;33.68
9723;DHT22;4900;49.306;8.500;2023-07-24T14:21:51;35.56;34.40
9723;DHT22;4900;49.306;8.500;2023-07-24T14:24:17;34.81;35.32
9723;DHT22;4900;49.306;8.500;2023-07-24T14:26:42;34.25;36.16
9723;DHT22;4900;49.306;8.500;2023-07-24T14:29:10;33.49;37.27
9723;DHT22;4900;49.306;8.500;2023-07-24T14:31:36;33.30;37.60
9723;DHT22;4900;49.306;8.500;2023-07-24T14:34:02;32.85;38.29
9723;DHT22;4900;49.306;8.500;2023-07-24T14:36:28;31.81;42.35
9723;DHT22;4900;49.306;8.500;2023-07-24T14:38:59;31.02;48.02
9723;DHT22;4900;49.306;8.500;2023-07-24T14:41:26;30.45;51.21
9723;DHT22;4900;49.306;8.500;2023-07-24T14:43:52;29.58;54.39
9723;DHT22;4900;49.306;8.500;2023-07-24T14:46:18;29.55;54.99
9723;DHT22;4900;49.306;8.500;2023-07-24T14:48:43;29.34;56.05
9723;DHT22;4900;49.306;8.500;2023-07-24T14:51:09;29.29;56.12
9723;DHT22;4900;49.306;8.500;2023-07-24T14:53:34;28.85;57.66
9723;DHT22;4900;49.306;8.500;2023-07-24T14:56:01;28.92;57.34
9723;DHT22;4900;49.306;8.500;2023-07-24T14:58:27;28.82;57.92
9723;DHT22;4900;49.306;8.500;2023-07-24T15:00:52;28.75;57.84
9723;DHT22;4900;49.306;8.500;2023-07-24T15:03:18;28.76;57.72
9723;DHT22;4900;49.306;8.500;2023-07-24T15:05:43;28.74;57.75
9723;DHT22;4900;49.306;8.500;2023-07-24T15:08:09;28.64;57.92
9723;DHT22;4900;49.306;8.500;2023-07-24T15:10:34;28.51;58.39
9723;DHT22;4900;49.306;8.500;2023-07-24T15:13:00;28.83;57.72
9723;DHT22;4900;49.306;8.500;2023-07-24T15:15:26;29.16;57.44
9723;DHT22;4900;49.306;8.500;2023-07-24T15:17:52;29.33;56.97
9723;DHT22;4900;49.306;8.500;2023-07-24T15:20:18;29.69;56.52
9723;DHT22;4900;49.306;8.500;2023-07-24T15:22:43;30.54;55.69
9723;DHT22;4900;49.306;8.500;2023-07-24T15:25:09;31.40;54.61
9723;DHT22;4900;49.306;8.500;2023-07-24T15:27:35;32.22;52.76
9723;DHT22;4900;49.306;8.500;2023-07-24T15:30:00;32.98;50.88
9723;DHT22;4900;49.306;8.500;2023-07-24T15:32:26;33.54;49.74
9723;DHT22;4900;49.306;8.500;2023-07-24T15:34:52;34.25;48.05
9723;DHT22;4900;49.306;8.500;2023-07-24T15:37:17;34.71;46.96
9723;DHT22;4900;49.306;8.500;2023-07-24T15:39:43;35.19;46.14
9723;DHT22;4900;49.306;8.500;2023-07-24T15:42:08;35.29;44.49
9723;DHT22;4900;49.306;8.500;2023-07-24T15:44:33;35.74;43.58
9723;DHT22;4900;49.306;8.500;2023-07-24T15:46:59;35.97;43.31
9723;DHT22;4900;49.306;8.500;2023-07-24T15:49:24;36.04;42.85
9723;DHT22;4900;49.306;8.500;2023-07-24T15:51:50;36.15;42.21
9723;DHT22;4900;49.306;8.500;2023-07-24T15:54:16;36.52;42.04
9723;DHT22;4900;49.306;8.500;2023-07-24T15:56:41;36.69;41.46
9723;DHT22;4900;49.306;8.500;2023-07-24T15:59:06;36.82;41.48
9723;DHT22;4900;49.306;8.500;2023-07-24T16:01:34;36.42;40.73
9723;DHT22;4900;49.306;8.500;2023-07-24T16:03:59;36.59;40.43
9723;DHT22;4900;49.306;8.500;2023-07-24T16:06:25;36.77;40.06
9723;DHT22;4900;49.306;8.500;2023-07-24T16:08:50;36.36;40.62